createdAt,value
2023-04-16T00:01:21.244Z,13.57
2023-04-16T00:03:48.765Z,10.95
2023-04-16T00:06:16.667Z,11.43
2023-04-16T00:08:43.941Z,13.27
2023-04-16T00:11:11.701Z,16.48
2023-04-16T00:13:38.948Z,15.90
2023-04-16T00:16:06.856Z,17.60
2023-04-16T00:18:34.190Z,15.25
2023-04-16T00:21:01.746Z,11.97
2023-04-16T00:23:29.109Z,15.18
2023-04-16T00:26:00.191Z,13.40
2023-04-16T00:28:27.908Z,18.95
2023-04-16T00:30:56.039Z,13.93
2023-04-16T00:35:51.371Z,19.05
2023-04-16T00:38:18.712Z,15.40
2023-04-16T00:40:46.069Z,15.20
2023-04-16T00:43:23.285Z,14.85
2023-04-16T00:45:51.774Z,15.52
2023-04-16T00:48:20.825Z,15.77
2023-04-16T00:50:49.074Z,14.82
2023-04-16T00:55:44.724Z,16.38
2023-04-16T00:58:12.278Z,14.55
2023-04-16T01:00:39.602Z,16.85
2023-04-16T01:03:07.056Z,16.70
2023-04-16T01:05:35.694Z,11.68
2023-04-16T01:08:03.172Z,15.60
2023-04-16T01:10:30.966Z,15.55
2023-04-16T01:12:58.410Z,11.35
2023-04-16T01:15:25.753Z,12.25
2023-04-16T01:17:53.089Z,23.55
2023-04-16T01:20:20.663Z,16.90
2023-04-16T01:22:47.904Z,22.60
2023-04-16T01:25:16.458Z,18.43
2023-04-16T01:27:43.853Z,15.52
2023-04-16T01:30:11.566Z,16.60
2023-04-16T01:32:49.737Z,18.05
2023-04-16T01:35:18.533Z,14.63
2023-04-16T01:37:46.464Z,16.42
2023-04-16T01:40:13.961Z,18.35
2023-04-16T01:42:41.317Z,14.23
2023-04-16T01:45:09.284Z,12.68
2023-04-16T01:47:36.884Z,13.23
2023-04-16T01:50:05.715Z,17.35
2023-04-16T01:52:32.969Z,15.68
2023-04-16T01:55:00.508Z,22.95
2023-04-16T01:57:27.790Z,11.60
2023-04-16T01:59:55.162Z,11.90
2023-04-16T02:02:28.246Z,13.00
2023-04-16T02:04:57.595Z,15.40
2023-04-16T02:07:25.720Z,12.40
2023-04-16T02:09:53.080Z,18.05
2023-04-16T02:12:21.307Z,13.95
2023-04-16T02:14:49.728Z,13.18
2023-04-16T02:17:18.859Z,12.65
2023-04-16T02:19:49.204Z,16.35
2023-04-16T02:22:17.463Z,15.88
2023-04-16T02:24:44.830Z,19.25
2023-04-16T02:27:12.217Z,15.50
2023-04-16T02:29:41.242Z,12.38
2023-04-16T02:32:14.208Z,12.73
2023-04-16T02:34:45.047Z,16.95
2023-04-16T02:37:15.515Z,13.60
2023-04-16T02:39:44.144Z,17.50
2023-04-16T02:42:11.470Z,16.17
2023-04-16T02:44:38.841Z,21.20
2023-04-16T02:47:06.188Z,17.20
2023-04-16T02:49:33.532Z,14.05
2023-04-16T02:52:00.885Z,16.48
2023-04-16T02:54:28.241Z,20.33
2023-04-16T02:56:55.711Z,15.50
2023-04-16T02:59:23.085Z,13.07
2023-04-16T03:01:50.726Z,16.90
2023-04-16T03:04:18.398Z,16.10
2023-04-16T03:06:45.760Z,13.57
2023-04-16T03:09:13.434Z,15.67
2023-04-16T03:11:40.855Z,13.20
2023-04-16T03:14:08.058Z,13.80
2023-04-16T03:16:35.399Z,15.05
2023-04-16T03:19:02.739Z,14.85
2023-04-16T03:21:30.147Z,14.77
2023-04-16T03:23:59.081Z,19.13
2023-04-16T03:26:26.591Z,17.70
2023-04-16T03:28:55.026Z,12.50
2023-04-16T03:31:25.177Z,17.27
2023-04-16T03:33:53.816Z,12.70
2023-04-16T03:36:21.348Z,16.98
2023-04-16T03:38:49.365Z,24.80
2023-04-16T03:41:17.437Z,14.75
2023-04-16T03:43:45.543Z,15.18
2023-04-16T03:46:12.903Z,12.57
2023-04-16T03:48:40.404Z,19.83
2023-04-16T03:51:08.348Z,14.40
2023-04-16T03:53:35.865Z,17.10
2023-04-16T03:56:03.332Z,16.55
2023-04-16T03:58:31.502Z,14.63
2023-04-16T04:00:58.831Z,15.60
2023-04-16T04:03:26.695Z,20.40
2023-04-16T04:05:55.580Z,16.63
2023-04-16T04:08:29.195Z,17.75
2023-04-16T04:10:56.752Z,21.47
2023-04-16T04:13:25.849Z,13.55
2023-04-16T04:18:22.538Z,16.75
2023-04-16T04:20:50.055Z,14.27
2023-04-16T04:23:20.260Z,12.48
2023-04-16T04:25:48.327Z,15.73
2023-04-16T04:28:16.284Z,18.85
2023-04-16T04:30:43.863Z,15.00
2023-04-16T04:33:11.548Z,12.60
2023-04-16T04:35:39.203Z,13.68
2023-04-16T04:38:06.794Z,21.00
2023-04-16T04:40:34.918Z,10.73
2023-04-16T04:43:04.568Z,11.38
2023-04-16T04:45:32.300Z,12.48
2023-04-16T04:48:00.289Z,11.15
2023-04-16T04:50:27.813Z,18.27
2023-04-16T04:52:55.243Z,12.67
2023-04-16T04:55:22.708Z,10.27
2023-04-16T04:57:51.506Z,9.35
2023-04-16T05:00:19.473Z,18.75
2023-04-16T05:02:55.369Z,13.43
2023-04-16T05:05:23.023Z,18.37
2023-04-16T05:07:50.345Z,15.65
2023-04-16T05:10:17.717Z,12.88
2023-04-16T05:12:49.974Z,13.15
2023-04-16T05:15:17.568Z,17.75
2023-04-16T05:17:44.910Z,14.45
2023-04-16T05:20:12.671Z,11.67
2023-04-16T05:22:39.950Z,7.20
2023-04-16T05:25:07.542Z,9.88
2023-04-16T05:27:34.878Z,9.82
2023-04-16T05:30:02.482Z,10.80
2023-04-16T05:32:31.940Z,8.43
2023-04-16T05:34:59.305Z,9.27
2023-04-16T05:37:26.588Z,18.48
2023-04-16T05:39:53.983Z,12.63
2023-04-16T05:42:21.219Z,10.98
2023-04-16T05:44:48.689Z,6.93
2023-04-16T05:47:15.953Z,13.50
2023-04-16T05:49:43.305Z,11.23
2023-04-16T05:52:10.630Z,12.02
2023-04-16T05:54:37.880Z,11.23
2023-04-16T05:57:05.347Z,10.00
2023-04-16T05:59:33.115Z,10.67
2023-04-16T06:02:00.530Z,15.77
2023-04-16T06:04:27.905Z,11.05
2023-04-16T06:06:55.134Z,9.93
2023-04-16T06:09:22.453Z,11.57
2023-04-16T06:11:49.987Z,7.60
2023-04-16T06:14:17.372Z,6.13
2023-04-16T06:16:44.847Z,7.85
2023-04-16T06:19:12.352Z,7.72
2023-04-16T06:21:39.851Z,9.80
2023-04-16T06:24:07.221Z,4.03
2023-04-16T06:26:34.516Z,12.77
2023-04-16T06:29:01.843Z,5.13
2023-04-16T06:31:30.678Z,6.20
2023-04-16T06:33:58.156Z,9.82
2023-04-16T06:36:27.219Z,7.50
2023-04-16T06:38:54.790Z,6.05
2023-04-16T06:41:23.060Z,9.30
2023-04-16T06:43:50.749Z,7.80
2023-04-16T06:46:18.269Z,5.37
2023-04-16T06:48:45.768Z,6.93
2023-04-16T06:51:13.579Z,5.22
2023-04-16T06:53:41.317Z,4.57
2023-04-16T06:56:09.063Z,8.60
2023-04-16T06:58:36.537Z,7.32
2023-04-16T07:01:04.216Z,4.68
2023-04-16T07:03:31.788Z,4.50
2023-04-16T07:05:59.344Z,6.97
2023-04-16T07:08:26.623Z,6.70
2023-04-16T07:10:54.567Z,6.03
2023-04-16T07:13:22.229Z,4.93
2023-04-16T07:15:49.505Z,6.93
2023-04-16T07:18:17.305Z,4.15
2023-04-16T07:20:45.667Z,7.03
2023-04-16T07:23:12.993Z,8.38
2023-04-16T07:25:42.396Z,2.87
2023-04-16T07:28:09.777Z,7.00
2023-04-16T07:30:37.170Z,6.72
2023-04-16T07:33:04.975Z,4.83
2023-04-16T07:35:32.683Z,12.77
2023-04-16T07:38:00.018Z,6.40
2023-04-16T07:40:27.328Z,3.33
2023-04-16T07:42:55.634Z,3.95
2023-04-16T07:45:24.988Z,5.47
2023-04-16T07:47:52.296Z,5.18
2023-04-16T07:50:19.709Z,6.83
2023-04-16T07:52:50.251Z,8.10
2023-04-16T07:55:17.568Z,8.25
2023-04-16T07:57:44.852Z,10.67
2023-04-16T08:00:12.722Z,14.70
2023-04-16T08:02:44.913Z,9.30
2023-04-16T08:05:13.373Z,6.72
2023-04-16T08:07:40.820Z,9.00
2023-04-16T08:10:09.067Z,23.30
2023-04-16T08:15:03.918Z,7.50
2023-04-16T08:17:35.111Z,7.60
2023-04-16T08:20:02.559Z,8.48
2023-04-16T08:22:32.924Z,13.20
2023-04-16T08:27:27.371Z,6.40
2023-04-16T08:29:54.650Z,8.85
2023-04-16T08:32:21.991Z,7.97
2023-04-16T08:34:49.484Z,5.55
2023-04-16T08:37:16.800Z,6.43
2023-04-16T08:39:44.337Z,10.63
2023-04-16T08:42:27.297Z,3.97
2023-04-16T08:45:09.156Z,6.07
2023-04-16T08:47:37.533Z,6.82
2023-04-16T08:50:06.266Z,7.22
2023-04-16T08:52:37.819Z,6.50
2023-04-16T08:55:14.306Z,7.65
2023-04-16T08:57:57.850Z,5.05
2023-04-16T09:00:25.642Z,6.57
2023-04-16T09:02:54.155Z,4.13
2023-04-16T09:05:25.947Z,5.75
2023-04-16T09:07:54.805Z,4.55
2023-04-16T09:10:22.474Z,6.22
2023-04-16T09:12:50.245Z,4.07
2023-04-16T09:15:17.662Z,5.10
2023-04-16T09:17:45.205Z,5.27
2023-04-16T09:20:13.059Z,3.78
2023-04-16T09:22:40.618Z,3.65
2023-04-16T09:25:08.787Z,6.28
2023-04-16T09:27:37.321Z,11.48
2023-04-16T09:30:24.360Z,12.02
2023-04-16T09:32:53.870Z,9.65
2023-04-16T09:35:21.780Z,5.78
2023-04-16T09:37:57.882Z,7.90
2023-04-16T09:40:30.709Z,6.18
2023-04-16T09:43:00.988Z,10.70
2023-04-16T09:45:32.902Z,6.70
2023-04-16T09:48:05.637Z,6.43
2023-04-16T09:50:32.963Z,16.73
2023-04-16T09:53:03.804Z,4.43
2023-04-16T09:55:31.136Z,3.20
2023-04-16T09:58:02.582Z,8.90
2023-04-16T10:00:31.735Z,7.75
2023-04-16T10:03:07.358Z,6.53
2023-04-16T10:05:35.496Z,10.23
2023-04-16T10:08:03.237Z,10.18
2023-04-16T10:10:30.790Z,6.28
2023-04-16T10:12:58.651Z,10.25
2023-04-16T10:15:28.547Z,6.50
2023-04-16T10:17:57.443Z,7.50
2023-04-16T10:20:25.298Z,4.30
2023-04-16T10:22:54.406Z,4.75
2023-04-16T10:25:22.361Z,4.45
2023-04-16T10:27:50.848Z,4.60
2023-04-16T10:30:19.676Z,3.78
2023-04-16T10:32:47.463Z,4.85
2023-04-16T10:35:24.019Z,3.45
2023-04-16T10:37:57.537Z,4.63
2023-04-16T10:40:27.582Z,3.75
2023-04-16T10:42:59.807Z,4.70
2023-04-16T10:45:37.926Z,4.55
2023-04-16T10:48:10.161Z,3.25
2023-04-16T10:50:38.142Z,7.28
2023-04-16T10:53:18.882Z,3.25
2023-04-16T10:56:15.773Z,3.70
2023-04-16T10:58:43.097Z,6.50
2023-04-16T11:01:16.799Z,9.88
2023-04-16T11:03:48.170Z,5.68
2023-04-16T11:06:23.990Z,5.10
2023-04-16T11:08:54.981Z,6.68
2023-04-16T11:11:39.798Z,10.30
2023-04-16T11:14:11.075Z,12.00
2023-04-16T11:16:41.640Z,10.07
2023-04-16T11:19:15.907Z,5.05
2023-04-16T11:21:45.527Z,4.47
2023-04-16T11:24:12.982Z,6.05
2023-04-16T11:26:40.451Z,7.15
2023-04-16T11:29:17.856Z,7.63
2023-04-16T11:31:52.847Z,4.80
2023-04-16T11:34:20.904Z,7.53
2023-04-16T11:36:50.422Z,7.60
2023-04-16T11:39:18.885Z,4.13
2023-04-16T11:41:52.639Z,5.72
2023-04-16T11:44:28.161Z,5.93
2023-04-16T11:46:55.650Z,3.33
2023-04-16T11:49:32.291Z,4.32
2023-04-16T11:52:00.386Z,19.00
2023-04-16T11:54:27.727Z,16.63
2023-04-16T11:56:54.992Z,10.73
2023-04-16T11:59:24.698Z,8.57
2023-04-16T12:01:57.521Z,10.68
2023-04-16T12:04:29.581Z,8.50
2023-04-16T12:07:13.698Z,11.18
2023-04-16T12:09:44.117Z,6.65
2023-04-16T12:12:28.346Z,5.03
2023-04-16T12:14:57.086Z,9.32
2023-04-16T12:17:24.696Z,4.90
2023-04-16T12:19:57.018Z,10.40
2023-04-16T12:22:30.181Z,4.88
2023-04-16T12:25:10.804Z,6.95
2023-04-16T12:27:53.768Z,4.93
2023-04-16T12:30:24.410Z,6.38
2023-04-16T12:33:12.304Z,3.78
2023-04-16T12:35:41.798Z,6.38
2023-04-16T12:38:09.577Z,8.43
2023-04-16T12:40:37.187Z,7.38
2023-04-16T12:43:04.529Z,9.68
2023-04-16T12:45:31.897Z,3.00
2023-04-16T12:47:59.729Z,4.20
2023-04-16T12:50:28.758Z,9.07
2023-04-16T12:52:57.603Z,11.02
2023-04-16T12:55:25.561Z,6.93
2023-04-16T12:57:53.247Z,8.82
2023-04-16T13:00:20.995Z,7.55
2023-04-16T13:02:48.533Z,7.90
2023-04-16T13:05:17.436Z,16.98
2023-04-16T13:07:44.993Z,11.77
2023-04-16T13:10:13.393Z,14.27
2023-04-16T13:12:41.246Z,4.13
2023-04-16T13:15:11.864Z,2.70
2023-04-16T13:17:39.232Z,9.43
2023-04-16T13:20:07.181Z,6.13
2023-04-16T13:22:34.697Z,6.93
2023-04-16T13:25:02.207Z,6.00
2023-04-16T13:27:32.275Z,5.72
2023-04-16T13:29:59.583Z,3.47
2023-04-16T13:32:27.107Z,4.33
2023-04-16T13:34:54.433Z,5.88
2023-04-16T13:37:21.740Z,4.57
2023-04-16T13:39:49.061Z,5.57
2023-04-16T13:42:17.020Z,5.03
2023-04-16T13:44:45.223Z,9.35
2023-04-16T13:49:39.605Z,7.38
2023-04-16T13:52:06.917Z,9.20
2023-04-16T13:54:34.481Z,9.88
2023-04-16T13:57:01.834Z,6.35
2023-04-16T13:59:29.244Z,5.20
2023-04-16T14:01:56.554Z,3.67
2023-04-16T14:04:23.903Z,12.17
2023-04-16T14:06:51.367Z,4.18
2023-04-16T14:09:18.717Z,10.25
2023-04-16T14:11:46.111Z,9.18
2023-04-16T14:14:13.554Z,7.00
2023-04-16T14:16:41.101Z,7.35
2023-04-16T14:19:08.602Z,8.77
2023-04-16T14:21:36.099Z,11.13
2023-04-16T14:24:03.678Z,9.93
2023-04-16T14:26:31.085Z,19.20
2023-04-16T14:28:58.351Z,16.42
2023-04-16T14:31:25.820Z,11.97
2023-04-16T14:33:53.385Z,8.15
2023-04-16T14:36:20.756Z,17.70
2023-04-16T14:38:48.620Z,5.90
2023-04-16T14:41:15.943Z,5.53
2023-04-16T14:43:44.518Z,14.50
2023-04-16T14:46:12.055Z,5.28
2023-04-16T14:48:39.366Z,7.93
2023-04-16T14:51:07.397Z,6.77
2023-04-16T14:53:36.337Z,15.10
2023-04-16T14:56:04.577Z,5.50
2023-04-16T14:58:32.514Z,10.20
2023-04-16T15:01:00.559Z,5.97
2023-04-16T15:03:28.316Z,4.65
2023-04-16T15:05:56.274Z,13.18
2023-04-16T15:08:24.597Z,10.88
2023-04-16T15:10:52.023Z,8.45
2023-04-16T15:13:19.580Z,7.47
2023-04-16T15:15:47.079Z,8.00
2023-04-16T15:18:14.442Z,4.97
2023-04-16T15:20:41.936Z,7.28
2023-04-16T15:23:09.290Z,24.38
2023-04-16T15:25:36.793Z,7.50
2023-04-16T15:28:06.726Z,9.17
2023-04-16T15:30:34.147Z,4.97
2023-04-16T15:33:01.935Z,12.07
2023-04-16T15:35:29.380Z,8.18
2023-04-16T15:37:56.725Z,11.77
2023-04-16T15:40:25.361Z,7.90
2023-04-16T15:42:52.705Z,13.65
2023-04-16T15:45:20.120Z,15.00
2023-04-16T15:47:51.385Z,12.90
2023-04-16T15:50:20.526Z,11.48
2023-04-16T15:52:48.097Z,14.43
2023-04-16T15:55:16.964Z,11.35
2023-04-16T15:57:45.658Z,10.48
2023-04-16T16:00:14.182Z,7.40
2023-04-16T16:02:43.025Z,18.08
2023-04-16T16:05:13.497Z,13.40
2023-04-16T16:07:42.031Z,11.23
2023-04-16T16:12:37.749Z,9.57
2023-04-16T16:15:09.258Z,13.38
2023-04-16T16:17:37.076Z,9.60
2023-04-16T16:20:06.816Z,8.85
2023-04-16T16:22:34.144Z,9.65
2023-04-16T16:25:01.949Z,8.00
2023-04-16T16:27:29.447Z,7.45
2023-04-16T16:29:56.795Z,15.00
2023-04-16T16:32:24.294Z,9.17
2023-04-16T16:34:51.678Z,13.95
2023-04-16T16:37:18.944Z,13.55
2023-04-16T16:39:46.291Z,19.87
2023-04-16T16:42:14.307Z,19.88
2023-04-16T16:44:41.579Z,34.78
2023-04-16T16:47:11.165Z,21.20
2023-04-16T16:49:38.428Z,25.02
2023-04-16T16:52:05.742Z,19.73
2023-04-16T16:54:33.054Z,22.60
2023-04-16T16:57:02.507Z,19.23
2023-04-16T16:59:29.857Z,20.38
2023-04-16T17:01:57.200Z,20.88
2023-04-16T17:04:24.732Z,23.53
2023-04-16T17:06:52.284Z,21.38
2023-04-16T17:09:19.726Z,21.65
2023-04-16T17:11:47.175Z,21.85
2023-04-16T17:14:14.462Z,21.00
2023-04-16T17:16:41.751Z,17.85
2023-04-16T17:19:09.485Z,15.80
2023-04-16T17:21:36.958Z,21.70
2023-04-16T17:24:04.408Z,21.17
2023-04-16T17:26:32.083Z,16.23
2023-04-16T17:28:59.571Z,13.80
2023-04-16T17:31:27.910Z,22.10
2023-04-16T17:36:25.653Z,24.20
2023-04-16T17:38:53.345Z,19.73
2023-04-16T17:41:21.219Z,22.60
2023-04-16T17:43:50.767Z,22.38
2023-04-16T17:46:20.753Z,21.58
2023-04-16T17:48:49.060Z,16.35
2023-04-16T17:53:46.547Z,21.33
2023-04-16T17:56:14.657Z,18.53
2023-04-16T17:58:42.020Z,23.85
2023-04-16T18:01:09.443Z,20.58
2023-04-16T18:03:37.498Z,18.73
2023-04-16T18:08:32.532Z,16.95
2023-04-16T18:10:59.803Z,23.55
2023-04-16T18:13:27.379Z,34.03
2023-04-16T18:15:54.723Z,24.23
2023-04-16T18:18:22.090Z,29.00
2023-04-16T18:20:49.440Z,21.40
2023-04-16T18:23:16.676Z,24.95
2023-04-16T18:25:44.607Z,26.08
2023-04-16T18:28:14.019Z,30.42
2023-04-16T18:30:42.558Z,21.50
2023-04-16T18:35:40.806Z,21.83
2023-04-16T18:38:08.110Z,24.92
2023-04-16T18:40:38.516Z,20.42
2023-04-16T18:43:05.962Z,30.55
2023-04-16T18:45:34.276Z,43.78
2023-04-16T18:48:04.271Z,34.53
2023-04-16T18:50:32.208Z,44.90
2023-04-16T18:52:59.577Z,28.15
2023-04-16T18:55:27.100Z,32.72
2023-04-16T18:57:55.336Z,25.55
2023-04-16T19:02:50.182Z,28.75
2023-04-16T19:05:18.059Z,28.65
2023-04-16T19:07:46.088Z,39.97
2023-04-16T19:10:13.464Z,26.80
2023-04-16T19:12:41.094Z,33.50
2023-04-16T19:15:08.700Z,22.55
2023-04-16T19:17:36.060Z,24.40
2023-04-16T19:20:08.026Z,25.77
2023-04-16T19:22:35.223Z,27.67
2023-04-16T19:25:02.566Z,29.48
2023-04-16T19:27:31.445Z,38.15
2023-04-16T19:29:58.817Z,49.30
2023-04-16T19:32:26.273Z,33.75
2023-04-16T19:34:53.568Z,44.10
2023-04-16T19:37:20.901Z,42.15
2023-04-16T19:39:48.224Z,30.20
2023-04-16T19:42:15.782Z,31.35
2023-04-16T19:44:43.061Z,30.80
2023-04-16T19:47:10.386Z,25.90
2023-04-16T19:49:38.444Z,30.85
2023-04-16T19:52:05.636Z,25.27
2023-04-16T19:54:34.911Z,24.83
2023-04-16T19:57:02.245Z,20.85
2023-04-16T19:59:30.038Z,25.67
2023-04-16T20:01:57.383Z,27.15
2023-04-16T20:04:24.807Z,37.77
2023-04-16T20:06:52.579Z,18.83
2023-04-16T20:09:20.400Z,17.88
2023-04-16T20:11:48.022Z,19.55
2023-04-16T20:14:15.439Z,16.67
2023-04-16T20:16:43.870Z,19.43
2023-04-16T20:19:11.350Z,15.15
2023-04-16T20:21:40.520Z,18.08
2023-04-16T20:24:10.696Z,14.65
2023-04-16T20:26:38.173Z,13.50
2023-04-16T20:29:05.449Z,14.05
2023-04-16T20:31:32.680Z,12.85
2023-04-16T20:33:59.866Z,25.00
2023-04-16T20:36:27.975Z,25.25
2023-04-16T20:38:55.250Z,16.90
2023-04-16T20:41:22.680Z,10.93
2023-04-16T20:43:52.841Z,14.90
2023-04-16T20:46:24.516Z,13.82
2023-04-16T20:48:52.182Z,12.68
2023-04-16T20:51:19.573Z,15.95
2023-04-16T20:53:46.977Z,14.10
2023-04-16T20:56:15.145Z,11.03
2023-04-16T21:01:10.436Z,13.43
2023-04-16T21:03:38.057Z,15.75
2023-04-16T21:06:05.593Z,14.57
2023-04-16T21:08:32.960Z,12.67
2023-04-16T21:11:00.271Z,8.70
2023-04-16T21:13:27.555Z,9.63
2023-04-16T21:15:54.936Z,13.65
2023-04-16T21:18:22.217Z,12.53
2023-04-16T21:20:49.445Z,14.02
2023-04-16T21:23:16.685Z,12.20
2023-04-16T21:25:43.948Z,11.68
2023-04-16T21:28:11.314Z,8.73
2023-04-16T21:30:38.994Z,9.35
2023-04-16T21:33:06.884Z,17.52
2023-04-16T21:35:34.331Z,13.90
2023-04-16T21:38:01.600Z,8.60
2023-04-16T21:40:28.959Z,11.88
2023-04-16T21:42:56.182Z,13.23
2023-04-16T21:45:23.422Z,14.00
2023-04-16T21:47:50.829Z,12.05
2023-04-16T21:50:18.385Z,12.03
2023-04-16T21:52:46.733Z,12.30
2023-04-16T21:55:14.888Z,11.10
2023-04-16T21:57:42.201Z,15.95
2023-04-16T22:00:14.324Z,10.60
2023-04-16T22:02:43.104Z,14.65
2023-04-16T22:05:11.512Z,15.15
2023-04-16T22:07:39.089Z,8.73
2023-04-16T22:10:08.829Z,15.20
2023-04-16T22:12:40.009Z,11.88
2023-04-16T22:15:09.192Z,7.88
2023-04-16T22:17:37.289Z,11.32
2023-04-16T22:20:10.197Z,13.20
2023-04-16T22:22:37.570Z,9.00
2023-04-16T22:25:05.608Z,9.93
2023-04-16T22:27:34.736Z,11.60
2023-04-16T22:30:03.283Z,10.57
2023-04-16T22:32:34.383Z,13.27
2023-04-16T22:35:02.154Z,14.20
2023-04-16T22:37:31.264Z,13.70
2023-04-16T22:39:58.558Z,13.70
2023-04-16T22:42:25.833Z,11.20
2023-04-16T22:44:53.105Z,12.77
2023-04-16T22:47:21.701Z,11.20
2023-04-16T22:49:49.009Z,8.23
2023-04-16T22:52:16.336Z,11.88
2023-04-16T22:54:43.648Z,11.63
2023-04-16T22:57:10.938Z,8.95
2023-04-16T22:59:38.304Z,13.60
2023-04-16T23:02:05.622Z,18.85
2023-04-16T23:04:33.401Z,7.40
2023-04-16T23:07:01.113Z,9.35
2023-04-16T23:09:28.372Z,9.07
2023-04-16T23:11:55.978Z,12.32
2023-04-16T23:14:23.321Z,10.98
2023-04-16T23:16:50.486Z,10.73
2023-04-16T23:19:17.775Z,18.13
2023-04-16T23:21:45.071Z,7.07
2023-04-16T23:24:12.298Z,15.15
2023-04-16T23:26:39.603Z,9.23
2023-04-16T23:29:06.970Z,15.48
2023-04-16T23:31:34.222Z,14.13
2023-04-16T23:34:01.549Z,11.60
2023-04-16T23:36:28.805Z,13.47
2023-04-16T23:38:56.028Z,11.82
2023-04-16T23:41:23.835Z,10.00
2023-04-16T23:43:51.341Z,9.00
2023-04-16T23:46:18.581Z,14.25
2023-04-16T23:48:45.907Z,11.93
2023-04-16T23:51:13.220Z,10.33
2023-04-16T23:53:40.958Z,13.75
2023-04-16T23:56:11.312Z,11.43
2023-04-16T23:58:38.808Z,11.60
